Montreal-Ouest, Canada
Current Conditions -  °F | °C
As of 9:00 AM on Monday 20 Oct 2014 (Local Time) from CYUL Reporting Station
Broken Clouds Broken Clouds  
Wind Chill: 34°   Ceiling: 24000
Heat Index: 39°   Visibility: 30mi
Dew Point: 30°   Wind: 7mph
Humidity: 70%   Direction: 240°WSW
Pressure: 29.99"   Gusts: NA
Location:  45.45°N, 73.65°W
Report Text: CYUL 201300Z 24006KT 30SM FEW030 FEW170 BKN240 04/M01 A2999 RMK SC1AC1CI7 SC TR AC TR SLP157
Loading
Personal Weather Stations






























Interactive Weather Map
Tropical Storm Tracking
New forecast layout! Learn more

10-Day Weather Forecast

Advertisements
Track Severe Weather on mobile